Bad Mitterndorf, Austria
Current Conditions -  °F | °C
As of 9:50 PM on Monday 20 Oct 2014 (Local Time) from LOXZ Reporting Station
Broken Clouds Broken Clouds  
Wind Chill: 48°   Ceiling: 25000
Heat Index: 48°   Visibility: 13mi
Dew Point: 48°   Wind: 3mph
Humidity: 100%   Direction: 320°NW
Pressure: 30.03"   Gusts: NA
Location:  47.56°N, 13.93°E
Report Text: LOXZ 202050Z 32003KT 20KM SCT150AC BKN250CI 09/09 Q1017 RMKBKN
Loading
Personal Weather Stations






























Interactive Weather Map
Tropical Storm Tracking
New forecast layout! Learn more

10-Day Weather Forecast

Advertisements
Track Severe Weather on mobile